Time;durP1;ratioP1;P1;durP2;ratioP2;P2;SDS_P1;SDS_P2;PMS_P1;PMS_P2;Temp;Humidity;BMP_temperature;BMP_pressure;BME280_temperature;BME280_humidity;BME280_pressure;Samples;Min_cycle;Max_cycle;Signal;HPM_P1;HPM_P2
2022/10/22 00:00:43;;;;;;;27.23;2.97;;;14.60;99.90;;;;;;5017484;28;20287;-73
2022/10/22 00:03:11;;;;;;;26.15;2.92;;;14.60;99.90;;;;;;5016443;28;20056;-75
2022/10/22 00:05:39;;;;;;;28.45;3.03;;;14.60;99.90;;;;;;5034781;28;20096;-72
2022/10/22 00:08:06;;;;;;;19.25;2.92;;;14.60;99.90;;;;;;5033521;28;20483;-72
2022/10/22 00:10:35;;;;;;;29.17;2.90;;;14.60;99.90;;;;;;5034896;28;20056;-72
2022/10/22 00:13:04;;;;;;;25.30;2.90;;;14.50;99.90;;;;;;5017413;28;20618;-73
2022/10/22 00:15:31;;;;;;;29.80;3.05;;;14.50;99.90;;;;;;5033626;28;20045;-73
2022/10/22 00:17:59;;;;;;;22.63;2.50;;;14.40;99.90;;;;;;5036332;28;20053;-73
2022/10/22 00:20:26;;;;;;;27.73;3.22;;;14.40;99.90;;;;;;5017131;28;20053;-73
2022/10/22 00:22:54;;;;;;;24.70;3.20;;;14.30;99.90;;;;;;5033633;28;20384;-74
2022/10/22 00:25:21;;;;;;;26.90;3.10;;;14.30;99.90;;;;;;5034737;28;20290;-75
2022/10/22 00:27:48;;;;;;;19.85;2.35;;;14.40;99.90;;;;;;5017259;28;20283;-75
2022/10/22 00:30:16;;;;;;;22.80;2.33;;;14.40;99.90;;;;;;5033694;28;20064;-74
2022/10/22 00:32:44;;;;;;;20.67;2.53;;;14.50;99.90;;;;;;5020975;28;20041;-75
2022/10/22 00:35:11;;;;;;;22.35;2.40;;;14.50;99.90;;;;;;5020211;28;20388;-74
2022/10/22 00:37:39;;;;;;;28.45;2.97;;;14.50;99.90;;;;;;5038776;28;20060;-75
2022/10/22 00:40:07;;;;;;;24.75;2.40;;;14.50;99.90;;;;;;5038256;28;20456;-75
2022/10/22 00:42:35;;;;;;;27.83;2.67;;;14.40;99.90;;;;;;5037288;28;20061;-75
2022/10/22 00:45:08;;;;;;;23.05;2.63;;;14.40;99.90;;;;;;5038106;28;20364;-75
2022/10/22 00:48:07;;;;;;;19.88;2.63;;;14.30;99.90;;;;;;5020819;28;20364;-74
2022/10/22 00:50:44;;;;;;;24.10;2.95;;;14.30;99.90;;;;;;5038393;28;20049;-74
2022/10/22 00:53:22;;;;;;;17.05;2.40;;;14.30;99.90;;;;;;5038154;28;20455;-75
2022/10/22 00:55:52;;;;;;;23.15;2.92;;;14.30;99.90;;;;;;5019595;28;20498;-75
2022/10/22 00:58:24;;;;;;;30.38;2.80;;;14.40;99.90;;;;;;5038245;28;20050;-74
2022/10/22 01:00:51;;;;;;;25.13;2.80;;;14.50;99.90;;;;;;5038316;28;20456;-75
2022/10/22 01:03:19;;;;;;;23.50;2.78;;;14.50;99.90;;;;;;5036782;28;20469;-75
2022/10/22 01:05:59;;;;;;;26.33;2.92;;;14.50;99.90;;;;;;5020493;28;20483;-75
2022/10/22 01:08:40;;;;;;;24.88;3.38;;;14.50;99.90;;;;;;5036599;28;20042;-75
2022/10/22 01:11:10;;;;;;;21.02;2.90;;;14.50;99.90;;;;;;5020736;28;20041;-74
2022/10/22 01:14:04;;;;;;;27.05;3.28;;;14.50;99.90;;;;;;5037890;28;20049;-75
2022/10/22 01:17:00;;;;;;;25.85;2.80;;;14.50;99.90;;;;;;5019739;28;20040;-74
2022/10/22 01:19:58;;;;;;;26.65;3.05;;;14.50;99.90;;;;;;5056348;28;20491;-75
2022/10/22 01:22:35;;;;;;;28.58;3.28;;;14.50;99.90;;;;;;5056503;28;20052;-75
2022/10/22 01:25:43;;;;;;;32.47;3.30;;;14.40;99.90;;;;;;5057095;28;20068;-74
2022/10/22 01:28:22;;;;;;;28.80;3.25;;;14.40;99.90;;;;;;4969984;28;20055;-75
2022/10/22 01:30:52;;;;;;;29.83;3.72;;;14.30;99.90;;;;;;5039867;28;20071;-74
2022/10/22 01:33:23;;;;;;;25.02;3.20;;;14.20;99.90;;;;;;5056230;28;20072;-75
2022/10/22 01:35:52;;;;;;;30.63;3.47;;;14.10;99.90;;;;;;5056187;28;20045;-74
2022/10/22 01:38:23;;;;;;;26.35;3.47;;;14.00;99.90;;;;;;5057625;28;20048;-74
2022/10/22 01:40:51;;;;;;;33.42;3.92;;;14.00;99.90;;;;;;5056570;28;20049;-74
2022/10/22 01:43:19;;;;;;;32.95;3.55;;;14.00;99.90;;;;;;5055830;28;20040;-74
2022/10/22 01:45:51;;;;;;;23.02;2.80;;;14.00;99.90;;;;;;5057150;28;20052;-75
2022/10/22 01:48:56;;;;;;;31.77;3.55;;;14.00;99.90;;;;;;5055543;28;20330;-75
2022/10/22 01:52:01;;;;;;;31.48;3.75;;;14.00;99.90;;;;;;5057070;28;20045;-74
2022/10/22 01:54:38;;;;;;;36.25;3.70;;;13.90;99.90;;;;;;5057243;28;20052;-74
2022/10/22 01:57:18;;;;;;;32.22;3.38;;;13.90;99.90;;;;;;5056363;28;20045;-75
2022/10/22 02:00:00;;;;;;;29.42;3.17;;;13.90;99.90;;;;;;5055785;28;20045;-74
2022/10/22 02:02:55;;;;;;;20.58;3.15;;;13.90;99.90;;;;;;5055642;28;20040;-74
2022/10/22 02:05:28;;;;;;;27.63;3.15;;;14.00;99.90;;;;;;5056685;28;20049;-75
2022/10/22 02:08:09;;;;;;;30.20;3.55;;;14.10;99.90;;;;;;5055763;28;20041;-74
2022/10/22 02:10:39;;;;;;;28.48;3.33;;;14.20;99.90;;;;;;5055580;28;20110;-74
2022/10/22 02:13:16;;;;;;;25.75;3.22;;;14.20;99.90;;;;;;5056421;28;20057;-75
2022/10/22 02:15:47;;;;;;;25.85;3.33;;;14.30;99.90;;;;;;5055652;28;20388;-74
2022/10/22 02:18:18;;;;;;;30.52;3.70;;;14.30;99.90;;;;;;5043319;28;20072;-74
2022/10/22 02:20:46;;;;;;;25.15;3.55;;;14.30;99.90;;;;;;5036483;28;20045;-75
2022/10/22 02:23:14;;;;;;;29.70;3.90;;;14.30;99.90;;;;;;5035137;28;20373;-75
2022/10/22 02:25:50;;;;;;;26.77;3.80;;;14.30;99.90;;;;;;5019510;28;20522;-75
2022/10/22 02:28:17;;;;;;;26.88;3.35;;;14.30;99.90;;;;;;5035093;28;20305;-74
2022/10/22 02:30:52;;;;;;;26.63;3.28;;;14.40;99.90;;;;;;5036165;28;20121;-75
2022/10/22 02:33:28;;;;;;;25.05;3.08;;;14.40;99.90;;;;;;5002271;28;20053;-74
2022/10/22 02:35:57;;;;;;;21.75;2.95;;;14.40;99.90;;;;;;5017949;28;20072;-75
2022/10/22 02:38:26;;;;;;;25.45;2.60;;;14.40;99.90;;;;;;5036048;28;20068;-75
2022/10/22 02:40:53;;;;;;;22.27;2.63;;;14.40;99.90;;;;;;5036320;28;20472;-75
2022/10/22 02:43:24;;;;;;;25.33;3.15;;;14.40;99.90;;;;;;5034928;28;20342;-75
2022/10/22 02:45:51;;;;;;;25.73;2.88;;;14.30;99.90;;;;;;5036153;28;20487;-74
2022/10/22 02:48:19;;;;;;;23.02;2.80;;;14.20;99.90;;;;;;5017385;28;20218;-74
2022/10/22 02:50:47;;;;;;;31.05;3.05;;;14.10;99.90;;;;;;5035811;28;20498;-75
2022/10/22 02:53:15;;;;;;;23.57;3.20;;;14.10;99.90;;;;;;5035355;28;20098;-76
2022/10/22 02:55:42;;;;;;;23.58;3.10;;;14.00;99.90;;;;;;5017531;28;20286;-74
2022/10/22 02:58:09;;;;;;;27.08;3.50;;;14.00;99.90;;;;;;5018436;28;20060;-75
2022/10/22 03:00:37;;;;;;;25.95;3.10;;;13.90;99.90;;;;;;5035548;28;20045;-75
2022/10/22 03:03:05;;;;;;;29.27;3.17;;;13.80;99.90;;;;;;5034479;28;20060;-75
2022/10/22 03:05:32;;;;;;;25.80;3.08;;;13.80;99.90;;;;;;5018215;28;20048;-75
2022/10/22 03:07:59;;;;;;;19.63;3.20;;;13.90;99.90;;;;;;5034314;28;20461;-75
2022/10/22 03:10:27;;;;;;;19.47;2.60;;;13.90;99.90;;;;;;5035598;28;20287;-74
2022/10/22 03:12:55;;;;;;;22.83;2.53;;;14.00;99.90;;;;;;5035706;28;20278;-75
2022/10/22 03:15:22;;;;;;;23.63;2.38;;;14.10;99.90;;;;;;5034238;28;20286;-75
2022/10/22 03:17:50;;;;;;;20.98;2.85;;;14.20;99.90;;;;;;5035134;28;20053;-75
2022/10/22 03:20:17;;;;;;;15.07;2.17;;;14.20;99.90;;;;;;5035134;28;20056;-75
2022/10/22 03:22:45;;;;;;;12.98;1.77;;;14.30;99.90;;;;;;5034289;28;20479;-74
2022/10/22 03:25:17;;;;;;;15.52;2.15;;;14.30;99.90;;;;;;5035528;28;20464;-74
2022/10/22 03:27:46;;;;;;;14.77;1.90;;;14.40;99.90;;;;;;5017703;28;20484;-75
2022/10/22 03:30:14;;;;;;;11.30;1.92;;;14.30;99.90;;;;;;5033946;28;20065;-75
2022/10/22 03:32:41;;;;;;;13.90;2.03;;;14.40;99.90;;;;;;5017986;28;20060;-75
2022/10/22 03:35:09;;;;;;;14.65;2.03;;;14.40;99.90;;;;;;5034210;28;20056;-75
2022/10/22 03:37:37;;;;;;;15.68;2.10;;;14.40;99.90;;;;;;5018028;28;20050;-75
2022/10/22 03:40:06;;;;;;;18.30;2.10;;;14.40;99.90;;;;;;5034851;28;20037;-75
2022/10/22 03:42:34;;;;;;;11.88;2.08;;;14.40;99.90;;;;;;5033838;28;20041;-75
2022/10/22 03:45:01;;;;;;;14.35;2.28;;;14.40;99.90;;;;;;5035511;28;20383;-74
2022/10/22 03:47:29;;;;;;;16.65;2.05;;;14.50;99.90;;;;;;5034957;28;20041;-75
2022/10/22 03:49:56;;;;;;;13.53;2.10;;;14.50;99.90;;;;;;5033738;28;20037;-74
2022/10/22 03:52:23;;;;;;;17.93;2.20;;;14.50;99.90;;;;;;5017663;28;20279;-74
2022/10/22 03:54:51;;;;;;;12.70;1.98;;;14.50;99.90;;;;;;5034339;28;20045;-75
2022/10/22 03:57:18;;;;;;;16.65;1.85;;;14.50;99.90;;;;;;5034749;28;20053;-74
2022/10/22 03:59:46;;;;;;;11.82;2.03;;;14.40;99.90;;;;;;5035018;28;20049;-75
2022/10/22 04:02:14;;;;;;;14.25;1.80;;;14.40;99.90;;;;;;5033497;28;20056;-74
2022/10/22 04:04:41;;;;;;;14.80;1.80;;;14.40;99.90;;;;;;5034735;28;20333;-75
2022/10/22 04:07:08;;;;;;;15.43;1.90;;;14.30;99.90;;;;;;5034728;28;20045;-74
2022/10/22 04:09:36;;;;;;;14.80;1.70;;;14.20;99.90;;;;;;5033429;28;20053;-74
2022/10/22 04:12:05;;;;;;;11.10;1.83;;;14.20;99.90;;;;;;5034622;28;20049;-74
2022/10/22 04:14:33;;;;;;;11.10;1.77;;;14.00;99.90;;;;;;5017128;28;20060;-75
2022/10/22 04:17:00;;;;;;;10.95;1.67;;;13.90;99.90;;;;;;5033197;28;20056;-75
2022/10/22 04:19:28;;;;;;;14.77;2.15;;;13.80;99.90;;;;;;5034731;28;20060;-75
2022/10/22 04:21:59;;;;;;;20.53;2.20;;;13.70;99.90;;;;;;5016176;28;20057;-75
2022/10/22 04:24:26;;;;;;;23.73;2.38;;;13.60;99.90;;;;;;5035082;28;20290;-75
2022/10/22 04:26:54;;;;;;;20.75;2.15;;;13.60;99.90;;;;;;5017060;28;20045;-75
2022/10/22 04:29:22;;;;;;;22.25;2.28;;;13.40;99.90;;;;;;5015949;28;20487;-75
2022/10/22 04:31:50;;;;;;;23.52;2.35;;;13.30;99.90;;;;;;5016947;28;20388;-75
2022/10/22 04:34:18;;;;;;;21.73;2.42;;;13.20;99.90;;;;;;5034474;28;20347;-75
2022/10/22 04:36:45;;;;;;;18.83;2.30;;;13.10;99.90;;;;;;5033273;28;20381;-75
2022/10/22 04:39:13;;;;;;;24.48;2.70;;;13.20;99.90;;;;;;5017408;28;20472;-75
2022/10/22 04:41:40;;;;;;;21.48;2.45;;;13.00;99.90;;;;;;5033242;28;20041;-75
2022/10/22 04:44:08;;;;;;;22.63;2.58;;;13.10;99.90;;;;;;5017227;28;20345;-74
2022/10/22 04:46:42;;;;;;;27.88;3.10;;;13.00;99.90;;;;;;5034466;28;20045;-75
2022/10/22 04:49:10;;;;;;;18.35;2.72;;;12.90;99.90;;;;;;5015971;28;20053;-74
2022/10/22 04:51:37;;;;;;;25.60;3.03;;;12.90;99.90;;;;;;5017547;28;20057;-75
2022/10/22 04:54:05;;;;;;;25.65;2.88;;;12.80;99.90;;;;;;5034298;28;20376;-75
2022/10/22 04:56:32;;;;;;;32.67;3.28;;;12.80;99.90;;;;;;5033205;28;20049;-75
2022/10/22 04:59:02;;;;;;;24.88;2.80;;;12.80;99.90;;;;;;5034113;28;20056;-75
2022/10/22 05:01:35;;;;;;;20.38;2.95;;;12.80;99.90;;;;;;5015494;28;20046;-75
2022/10/22 05:04:15;;;;;;;28.80;2.95;;;12.70;99.90;;;;;;5017839;28;20045;-75
2022/10/22 05:06:43;;;;;;;28.67;3.03;;;13.10;99.90;;;;;;5034149;28;20046;-75
2022/10/22 05:09:16;;;;;;;31.23;3.42;;;12.60;99.90;;;;;;5033059;28;20041;-75
2022/10/22 05:11:47;;;;;;;29.95;3.03;;;12.60;99.90;;;;;;5034135;28;20391;-75
2022/10/22 05:14:23;;;;;;;22.17;2.60;;;12.60;99.90;;;;;;5034248;28;20049;-75
2022/10/22 05:16:51;;;;;;;33.10;3.35;;;12.60;99.90;;;;;;5034173;28;20125;-75
2022/10/22 05:19:28;;;;;;;34.42;3.25;;;12.60;99.90;;;;;;5020505;28;20049;-74
2022/10/22 05:21:58;;;;;;;28.58;2.97;;;12.60;99.90;;;;;;5036384;28;20392;-74
2022/10/22 05:24:27;;;;;;;26.48;3.13;;;12.50;99.90;;;;;;5020258;28;20049;-75
2022/10/22 05:26:57;;;;;;;29.50;3.30;;;12.50;99.90;;;;;;5038037;28;20387;-75
2022/10/22 05:29:25;;;;;;;34.65;3.40;;;12.40;99.90;;;;;;5036228;28;20390;-75
2022/10/22 05:31:52;;;;;;;;;;;12.30;99.90;;;;;;5020321;28;20041;-75
2022/10/22 05:34:20;;;;;;;27.55;3.42;;;12.30;99.90;;;;;;5037528;28;19929;-75
2022/10/22 05:36:47;;;;;;;30.52;3.20;;;12.20;99.90;;;;;;5018955;28;20049;-75
2022/10/22 05:39:15;;;;;;;24.40;3.08;;;12.20;99.90;;;;;;5037845;28;20060;-75
2022/10/22 05:41:43;;;;;;;27.98;3.40;;;12.20;99.90;;;;;;5019433;28;20037;-74
2022/10/22 05:44:11;;;;;;;27.50;3.40;;;12.10;99.90;;;;;;5036988;28;20049;-75
2022/10/22 05:46:39;;;;;;;36.58;3.42;;;12.00;99.90;;;;;;5037167;28;20061;-74
2022/10/22 05:49:07;;;;;;;29.40;3.63;;;12.00;99.90;;;;;;5018692;28;20376;-75
2022/10/22 05:51:36;;;;;;;29.40;3.20;;;12.00;99.90;;;;;;5019875;28;20349;-75
2022/10/22 05:54:06;;;;;;;31.73;3.67;;;11.90;99.90;;;;;;5036896;28;20515;-75
2022/10/22 05:56:35;;;;;;;34.50;3.95;;;11.90;99.90;;;;;;5035791;28;20049;-75
2022/10/22 05:59:03;;;;;;;38.03;3.70;;;11.90;99.90;;;;;;5019875;28;20060;-75
2022/10/22 06:01:34;;;;;;;34.33;3.95;;;12.10;99.90;;;;;;5018513;28;20058;-74
2022/10/22 06:04:04;;;;;;;34.45;4.43;;;12.10;99.90;;;;;;5036610;28;20380;-75
2022/10/22 06:06:34;;;;;;;40.15;4.65;;;11.80;99.90;;;;;;5019867;28;20046;-74
2022/10/22 06:09:13;;;;;;;41.83;3.80;;;11.80;99.90;;;;;;5035524;28;20050;-74
2022/10/22 06:11:41;;;;;;;45.85;4.45;;;11.80;99.90;;;;;;5019457;28;20064;-75
2022/10/22 06:14:09;;;;;;;43.08;3.80;;;12.20;99.90;;;;;;5036334;28;20045;-75
2022/10/22 06:16:37;;;;;;;36.92;4.15;;;11.70;99.90;;;;;;5035297;28;20136;-75
2022/10/22 06:19:04;;;;;;;45.70;4.35;;;11.70;99.90;;;;;;5034452;28;20060;-75
2022/10/22 06:21:32;;;;;;;45.83;4.30;;;11.70;99.90;;;;;;5035315;28;20046;-75
2022/10/22 06:24:01;;;;;;;42.92;4.38;;;11.70;99.90;;;;;;5036302;28;20049;-75
2022/10/22 06:26:29;;;;;;;50.25;4.75;;;11.70;99.90;;;;;;5036261;28;20046;-75
2022/10/22 06:28:57;;;;;;;41.30;4.63;;;11.70;99.90;;;;;;5017774;28;20044;-75
2022/10/22 06:31:26;;;;;;;52.30;5.10;;;11.70;99.90;;;;;;5036279;28;20046;-75
2022/10/22 06:33:55;;;;;;;49.72;5.18;;;11.70;99.90;;;;;;5036544;28;20056;-75
2022/10/22 06:36:23;;;;;;;53.80;5.03;;;11.70;99.90;;;;;;5018000;28;20048;-75
2022/10/22 06:38:52;;;;;;;45.10;4.97;;;11.70;99.90;;;;;;5018807;28;20049;-75
2022/10/22 06:41:21;;;;;;;52.90;5.10;;;11.70;99.90;;;;;;5034840;28;20054;-75
2022/10/22 06:43:53;;;;;;;57.63;5.43;;;11.70;99.90;;;;;;5035914;28;20421;-75
2022/10/22 06:46:22;;;;;;;48.00;5.03;;;11.70;99.90;;;;;;5036086;28;20041;-75
2022/10/22 06:48:58;;;;;;;59.03;5.63;;;11.70;99.90;;;;;;5017442;28;20045;-75
2022/10/22 06:51:26;;;;;;;59.72;5.65;;;11.70;99.90;;;;;;5036014;28;20056;-75
2022/10/22 06:53:55;;;;;;;;;;;11.90;99.90;;;;;;5036055;28;20060;-75
2022/10/22 06:56:24;;;;;;;43.65;5.32;;;11.70;99.90;;;;;;5034608;28;20268;-75
2022/10/22 06:58:54;;;;;;;55.50;5.70;;;11.80;99.90;;;;;;5036065;28;20368;-75
2022/10/22 07:01:31;;;;;;;47.45;5.13;;;11.80;99.90;;;;;;5034402;28;20376;-75
2022/10/22 07:03:59;;;;;;;57.53;5.68;;;11.80;99.90;;;;;;5035906;28;20045;-75
2022/10/22 07:06:28;;;;;;;56.65;5.53;;;11.80;99.90;;;;;;5035787;28;20052;-75
2022/10/22 07:09:00;;;;;;;51.47;5.65;;;11.80;99.90;;;;;;5017529;28;20464;-75
2022/10/22 07:11:34;;;;;;;55.60;5.18;;;11.90;99.90;;;;;;5034852;28;20046;-75
2022/10/22 07:14:01;;;;;;;50.90;4.88;;;11.90;99.90;;;;;;5031156;28;20049;-74
2022/10/22 07:16:28;;;;;;;56.53;5.90;;;12.00;99.90;;;;;;5014383;28;20368;-76
2022/10/22 07:19:03;;;;;;;57.13;5.75;;;12.00;99.90;;;;;;5015034;28;20742;-74
2022/10/22 07:21:31;;;;;;;48.38;5.03;;;12.00;99.90;;;;;;5014193;28;20046;-74
2022/10/22 07:23:58;;;;;;;48.10;5.45;;;12.10;99.90;;;;;;5015172;28;20064;-75
2022/10/22 07:26:29;;;;;;;47.63;5.05;;;12.20;99.90;;;;;;5015016;28;20049;-74
2022/10/22 07:29:00;;;;;;;52.33;5.50;;;12.30;99.90;;;;;;5014159;28;20461;-74
2022/10/22 07:31:28;;;;;;;49.50;5.35;;;12.40;99.90;;;;;;5015040;28;20042;-74
2022/10/22 07:33:56;;;;;;;50.22;5.40;;;12.50;99.90;;;;;;5015100;28;20046;-74
2022/10/22 07:36:24;;;;;;;45.90;5.43;;;12.50;99.90;;;;;;5014058;28;20042;-74
2022/10/22 07:38:57;;;;;;;37.85;4.93;;;12.60;99.90;;;;;;5014430;28;20050;-74
2022/10/22 07:41:26;;;;;;;44.20;5.05;;;12.70;99.90;;;;;;5013884;28;20046;-74
2022/10/22 07:43:54;;;;;;;37.08;4.82;;;12.70;99.90;;;;;;5014821;28;20042;-74
2022/10/22 07:46:22;;;;;;;;;;;12.80;99.90;;;;;;4998207;28;20148;-74
2022/10/22 07:48:50;;;;;;;45.45;4.82;;;12.80;99.90;;;;;;5013849;28;19921;-74
2022/10/22 07:51:18;;;;;;;58.25;5.40;;;12.90;99.90;;;;;;5014822;28;20049;-74
2022/10/22 07:53:45;;;;;;;44.38;5.25;;;12.80;99.90;;;;;;5014624;28;20046;-75
2022/10/22 07:56:13;;;;;;;44.92;4.78;;;12.90;99.90;;;;;;5013933;28;20385;-75
2022/10/22 07:58:40;;;;;;;45.40;4.57;;;12.90;99.90;;;;;;5014600;28;20050;-75
2022/10/22 08:01:08;;;;;;;34.80;4.70;;;12.90;99.90;;;;;;5014694;28;20057;-75
2022/10/22 08:03:35;;;;;;;45.85;5.00;;;13.00;99.90;;;;;;5013527;28;20053;-74
2022/10/22 08:06:06;;;;;;;44.72;5.30;;;13.00;99.90;;;;;;4997468;28;20057;-75
2022/10/22 08:08:33;;;;;;;47.55;5.15;;;12.90;99.90;;;;;;4979882;28;20088;-75
2022/10/22 08:11:01;;;;;;;38.65;4.78;;;12.90;99.90;;;;;;4997499;28;20061;-75
2022/10/22 08:13:29;;;;;;;43.22;4.53;;;12.90;99.90;;;;;;5014776;28;20469;-74
2022/10/22 08:15:57;;;;;;;;;;;12.90;99.90;;;;;;5013940;28;20473;-74
2022/10/22 08:18:26;;;;;;;32.42;4.32;;;13.00;99.90;;;;;;5014409;28;19921;-75
2022/10/22 08:20:53;;;;;;;37.22;4.65;;;12.90;99.90;;;;;;5014691;28;20045;-75
2022/10/22 08:23:21;;;;;;;49.25;4.95;;;13.00;99.90;;;;;;4996393;28;20061;-74
2022/10/22 08:25:54;;;;;;;46.53;4.97;;;13.00;99.90;;;;;;5014759;28;20041;-75
2022/10/22 08:28:21;;;;;;;38.78;4.50;;;13.00;99.90;;;;;;5013587;28;20046;-75
2022/10/22 08:30:49;;;;;;;41.33;4.85;;;13.00;99.90;;;;;;4997829;28;20066;-74
2022/10/22 08:33:16;;;;;;;36.40;4.47;;;13.10;99.90;;;;;;4997378;28;20060;-75
2022/10/22 08:35:51;;;;;;;42.30;4.72;;;13.10;99.90;;;;;;5013624;28;20050;-74
2022/10/22 08:38:19;;;;;;;42.35;5.18;;;13.10;99.90;;;;;;5014773;28;20484;-75
2022/10/22 08:40:52;;;;;;;41.78;5.10;;;13.10;99.90;;;;;;5014491;28;20046;-75
2022/10/22 08:43:29;;;;;;;43.75;5.53;;;13.10;99.90;;;;;;5013452;28;20042;-74
2022/10/22 08:46:16;;;;;;;44.42;5.07;;;13.10;99.90;;;;;;4997596;28;20046;-74
2022/10/22 08:48:43;;;;;;;34.42;4.40;;;13.10;99.90;;;;;;4997059;28;20376;-75
2022/10/22 08:51:15;;;;;;;39.13;4.77;;;13.20;99.90;;;;;;5032920;28;20052;-74
2022/10/22 08:53:58;;;;;;;35.05;4.68;;;13.20;99.90;;;;;;5037806;28;20365;-74
2022/10/22 08:56:27;;;;;;;36.05;5.20;;;13.30;99.90;;;;;;5035781;28;20049;-74
2022/10/22 08:59:04;;;;;;;42.60;4.90;;;13.40;99.90;;;;;;5034865;28;20484;-74
2022/10/22 09:01:38;;;;;;;31.65;4.53;;;13.50;99.90;;;;;;5035255;28;20121;-74
2022/10/22 09:04:24;;;;;;;31.40;4.20;;;13.50;99.90;;;;;;5038018;28;20041;-73
2022/10/22 09:06:54;;;;;;;40.60;5.18;;;13.60;99.90;;;;;;5037937;28;20056;-74
2022/10/22 09:09:25;;;;;;;36.70;4.35;;;13.70;99.90;;;;;;5036882;28;20041;-73
2022/10/22 09:11:56;;;;;;;34.78;4.75;;;13.80;99.90;;;;;;5037668;28;20049;-74
2022/10/22 09:14:25;;;;;;;30.60;4.45;;;13.90;99.90;;;;;;5038277;28;20050;-73
2022/10/22 09:17:16;;;;;;;32.70;4.68;;;14.00;99.90;;;;;;5036659;28;20057;-74
2022/10/22 09:19:58;;;;;;;34.22;4.80;;;14.10;99.90;;;;;;5037793;28;20049;-73
2022/10/22 09:22:57;;;;;;;32.75;4.50;;;14.30;99.90;;;;;;5036980;28;20045;-74
2022/10/22 09:25:31;;;;;;;29.85;4.72;;;14.50;99.90;;;;;;5030885;28;20491;-74
2022/10/22 09:27:59;;;;;;;36.70;4.68;;;14.60;99.90;;;;;;5037591;28;20453;-74
2022/10/22 09:30:29;;;;;;;37.72;4.63;;;14.70;99.90;;;;;;5037283;28;20049;-75
2022/10/22 09:33:13;;;;;;;39.95;4.65;;;14.80;99.90;;;;;;5019713;28;20068;-74
2022/10/22 09:35:47;;;;;;;32.10;4.30;;;15.00;99.90;;;;;;5019245;28;20049;-74
2022/10/22 09:38:19;;;;;;;27.08;3.88;;;15.10;99.90;;;;;;5037194;28;20053;-74
2022/10/22 09:40:53;;;;;;;27.02;3.70;;;15.20;99.90;;;;;;5036097;28;20468;-74
2022/10/22 09:43:20;;;;;;;32.28;4.07;;;15.30;99.90;;;;;;5036032;28;20049;-74
2022/10/22 09:45:58;;;;;;;32.30;3.83;;;15.40;99.90;;;;;;5037332;28;20457;-75
2022/10/22 09:48:40;;;;;;;25.25;3.78;;;15.40;99.90;;;;;;5036252;28;20038;-75
2022/10/22 09:51:22;;;;;;;31.40;3.88;;;15.50;99.90;;;;;;5036924;28;20042;-74
2022/10/22 09:53:58;;;;;;;32.53;4.07;;;15.50;99.90;;;;;;5036951;28;20057;-74
2022/10/22 09:56:34;;;;;;;28.90;4.15;;;15.50;99.90;;;;;;5018669;28;20045;-73
2022/10/22 09:59:02;;;;;;;25.13;3.92;;;15.50;99.90;;;;;;5036882;28;20056;-74
2022/10/22 10:01:37;;;;;;;32.72;4.10;;;15.50;99.90;;;;;;5032578;28;20060;-74
2022/10/22 10:04:09;;;;;;;26.50;3.40;;;15.50;99.90;;;;;;5036649;28;20353;-74
2022/10/22 10:06:39;;;;;;;31.27;4.40;;;15.40;99.90;;;;;;5036963;28;20045;-75
2022/10/22 10:09:18;;;;;;;28.77;4.57;;;15.40;99.90;;;;;;5035687;28;20037;-75
2022/10/22 10:11:54;;;;;;;32.00;4.70;;;15.40;99.90;;;;;;5036693;28;20456;-73
2022/10/22 10:14:53;;;;;;;30.70;4.40;;;15.40;99.90;;;;;;5037112;28;20476;-73
2022/10/22 10:17:37;;;;;;;25.60;4.20;;;15.60;99.90;;;;;;5036569;28;20049;-74
2022/10/22 10:20:31;;;;;;;24.70;3.88;;;15.70;99.90;;;;;;5037039;28;20050;-73
2022/10/22 10:23:29;;;;;;;25.20;3.85;;;15.80;99.90;;;;;;5035324;28;20045;-73
2022/10/22 10:26:16;;;;;;;26.30;3.92;;;15.90;99.90;;;;;;5036881;28;20053;-74
2022/10/22 10:29:35;;;;;;;27.27;4.28;;;15.90;99.90;;;;;;5035681;28;20473;-74
2022/10/22 10:32:25;;;;;;;23.20;4.25;;;16.00;99.90;;;;;;4995842;28;20050;-74
2022/10/22 10:35:14;;;;;;;29.13;4.22;;;16.00;99.90;;;;;;5035503;28;20049;-74
2022/10/22 10:38:11;;;;;;;25.73;3.90;;;16.10;99.90;;;;;;5036143;28;20057;-73
2022/10/22 10:40:48;;;;;;;;;;;16.10;99.90;;;;;;4990463;28;20053;-74
2022/10/22 10:43:21;;;;;;;26.10;3.80;;;16.10;99.90;;;;;;5034938;28;19921;-75
2022/10/22 10:45:51;;;;;;;23.88;3.58;;;16.10;99.90;;;;;;5036022;28;20049;-73
2022/10/22 10:48:47;;;;;;;23.25;3.80;;;16.20;99.90;;;;;;5018118;28;20400;-74
2022/10/22 10:51:29;;;;;;;29.38;4.00;;;16.20;99.90;;;;;;5036483;28;20050;-74
2022/10/22 10:54:21;;;;;;;22.67;3.63;;;16.30;99.90;;;;;;5036041;28;20049;-74
2022/10/22 10:57:03;;;;;;;25.83;3.97;;;16.30;99.90;;;;;;5034942;28;20506;-74
2022/10/22 10:59:30;;;;;;;27.50;3.95;;;16.40;99.90;;;;;;5019255;28;20049;-74
2022/10/22 11:02:07;;;;;;;25.10;3.53;;;16.50;99.90;;;;;;5018181;28;20388;-74
2022/10/22 11:05:01;;;;;;;22.08;3.55;;;16.50;99.90;;;;;;5018540;28;20294;-74
2022/10/22 11:07:41;;;;;;;28.23;3.70;;;16.60;99.90;;;;;;5018634;28;20484;-73
2022/10/22 11:10:23;;;;;;;24.65;3.88;;;16.70;99.90;;;;;;5017993;28;20048;-74
2022/10/22 11:12:59;;;;;;;26.73;3.70;;;16.70;99.90;;;;;;5036311;28;20052;-74
2022/10/22 11:15:33;;;;;;;24.48;4.00;;;16.70;99.90;;;;;;5033994;28;20045;-74
2022/10/22 11:18:16;;;;;;;25.13;3.70;;;16.70;99.90;;;;;;5036635;28;20053;-74
2022/10/22 11:20:52;;;;;;;36.22;4.32;;;16.70;99.90;;;;;;5055833;28;20053;-74
2022/10/22 11:23:30;;;;;;;22.35;3.67;;;16.80;99.90;;;;;;5053335;28;20052;-74
2022/10/22 11:26:00;;;;;;;27.20;3.60;;;16.90;99.90;;;;;;5055626;28;20078;-74
2022/10/22 11:28:34;;;;;;;20.23;3.85;;;17.00;99.90;;;;;;5054515;28;20041;-74
2022/10/22 11:31:07;;;;;;;20.10;3.47;;;17.00;99.90;;;;;;5055035;28;20041;-75
2022/10/22 11:33:58;;;;;;;21.77;3.35;;;17.10;99.90;;;;;;5055426;28;20455;-74
2022/10/22 11:36:37;;;;;;;26.15;3.70;;;17.20;99.90;;;;;;5054061;28;20056;-76
2022/10/22 11:39:05;;;;;;;16.33;3.25;;;17.30;99.90;;;;;;5054960;28;20044;-75
2022/10/22 11:41:34;;;;;;;24.38;3.80;;;17.40;99.90;;;;;;5047612;28;20593;-75
2022/10/22 11:44:22;;;;;;;27.38;3.90;;;17.50;99.90;;;;;;5055471;28;20048;-74
2022/10/22 11:47:07;;;;;;;20.33;3.50;;;17.60;99.90;;;;;;5053884;28;20048;-75
2022/10/22 11:49:43;;;;;;;24.48;3.58;;;17.60;99.90;;;;;;5033588;28;20053;-74
2022/10/22 11:52:30;;;;;;;23.23;3.42;;;17.60;99.90;;;;;;5044038;28;20368;-74
2022/10/22 11:55:01;;;;;;;24.37;3.57;;;17.70;99.90;;;;;;5043190;28;20480;-74
2022/10/22 11:57:36;;;;;;;26.92;4.20;;;17.70;99.90;;;;;;5051747;28;20271;-73
2022/10/22 12:00:39;;;;;;;33.00;4.20;;;17.70;99.90;;;;;;5054406;28;20056;-72
2022/10/22 12:03:39;;;;;;;15.88;3.10;;;17.70;99.90;;;;;;5048091;28;20064;-71
2022/10/22 12:06:14;;;;;;;23.33;3.10;;;17.70;99.90;;;;;;5054508;28;20052;-72
2022/10/22 12:08:49;;;;;;;26.75;3.90;;;17.70;99.90;;;;;;5053294;28;20060;-72
2022/10/22 12:11:22;;;;;;;23.90;3.60;;;17.70;99.90;;;;;;5054516;28;20464;-72
2022/10/22 12:14:06;;;;;;;27.35;4.25;;;17.70;99.90;;;;;;5053893;28;20364;-72
2022/10/22 12:16:38;;;;;;;22.17;3.60;;;17.70;99.90;;;;;;5053759;28;20518;-73
2022/10/22 12:19:29;;;;;;;19.38;3.90;;;17.70;99.90;;;;;;5055004;28;20364;-73
2022/10/22 12:21:58;;;;;;;22.33;3.45;;;17.60;99.90;;;;;;5052747;28;20487;-73
2022/10/22 12:24:31;;;;;;;27.15;3.38;;;17.60;99.90;;;;;;5054595;28;20048;-71
2022/10/22 12:26:58;;;;;;;22.52;3.60;;;17.60;99.90;;;;;;5057967;28;20063;-74
2022/10/22 12:29:27;;;;;;;21.65;3.70;;;17.70;99.90;;;;;;5056462;28;20056;-73
2022/10/22 12:31:55;;;;;;;21.25;3.22;;;17.80;99.90;;;;;;5058344;28;20049;-74
2022/10/22 12:34:24;;;;;;;20.73;3.38;;;18.00;99.90;;;;;;5058408;28;20052;-73
2022/10/22 12:36:52;;;;;;;24.60;3.90;;;18.20;99.90;;;;;;5057388;28;20045;-74
2022/10/22 12:39:24;;;;;;;25.23;5.00;;;18.30;99.90;;;;;;5057646;28;20051;-73
2022/10/22 12:41:53;;;;;;;20.83;3.45;;;18.50;99.90;;;;;;5057088;28;20052;-72
2022/10/22 12:44:21;;;;;;;21.90;3.53;;;18.50;99.90;;;;;;5058327;28;20464;-72
2022/10/22 12:46:49;;;;;;;21.20;3.45;;;18.50;99.90;;;;;;5058575;28;20049;-73
2022/10/22 12:49:37;;;;;;;21.17;3.30;;;18.50;99.90;;;;;;5056459;28;20364;-72
2022/10/22 12:52:19;;;;;;;21.00;3.33;;;18.40;99.90;;;;;;5057138;28;20052;-73
2022/10/22 12:54:51;;;;;;;18.35;3.15;;;18.40;99.90;;;;;;5056833;28;20131;-72
2022/10/22 12:57:20;;;;;;;20.85;3.08;;;18.40;99.90;;;;;;5057578;28;20060;-73
2022/10/22 12:59:49;;;;;;;24.63;3.85;;;18.40;99.90;;;;;;5058092;28;20379;-74
2022/10/22 13:02:23;;;;;;;21.10;3.65;;;18.40;99.90;;;;;;5055517;28;20044;-73
2022/10/22 13:05:14;;;;;;;18.50;2.70;;;18.50;99.90;;;;;;5056707;28;20268;-73
2022/10/22 13:07:53;;;;;;;18.35;3.10;;;18.50;99.90;;;;;;5058236;28;20474;-73